createdAt,value
2022-12-13T00:01:47.874Z,100.00
2022-12-13T00:04:16.391Z,100.00
2022-12-13T00:06:44.799Z,100.00
2022-12-13T00:09:15.040Z,100.00
2022-12-13T00:11:45.100Z,100.00
2022-12-13T00:14:14.778Z,100.00
2022-12-13T00:16:46.946Z,100.00
2022-12-13T00:19:15.750Z,100.00
2022-12-13T00:21:43.992Z,100.00
2022-12-13T00:24:12.325Z,100.00
2022-12-13T00:26:40.902Z,100.00
2022-12-13T00:29:12.161Z,100.00
2022-12-13T00:34:28.961Z,100.00
2022-12-13T00:36:59.377Z,100.00
2022-12-13T00:39:28.110Z,100.00
2022-12-13T00:41:56.573Z,100.00
2022-12-13T00:44:26.480Z,100.00
2022-12-13T00:46:54.810Z,100.00
2022-12-13T00:49:23.235Z,100.00
2022-12-13T00:51:51.391Z,100.00
2022-12-13T00:54:19.870Z,100.00
2022-12-13T00:56:48.171Z,100.00
2022-12-13T00:59:16.923Z,100.00
2022-12-13T01:01:46.765Z,100.00
2022-12-13T01:04:15.189Z,100.00
2022-12-13T01:06:45.778Z,100.00
2022-12-13T01:09:19.263Z,100.00
2022-12-13T01:11:48.071Z,100.00
2022-12-13T01:14:16.565Z,100.00
2022-12-13T01:16:46.305Z,100.00
2022-12-13T01:19:14.578Z,100.00
2022-12-13T01:21:42.861Z,100.00
2022-12-13T01:24:11.165Z,100.00
2022-12-13T01:26:39.395Z,100.00
2022-12-13T01:29:08.769Z,100.00
2022-12-13T01:31:41.588Z,100.00
2022-12-13T01:34:12.338Z,100.00
2022-12-13T01:36:41.955Z,100.00
2022-12-13T01:39:15.216Z,100.00
2022-12-13T01:41:45.287Z,100.00
2022-12-13T01:44:46.363Z,100.00
2022-12-13T01:47:17.961Z,100.00
2022-12-13T01:49:48.001Z,100.00
2022-12-13T01:52:18.227Z,100.00
2022-12-13T01:54:49.948Z,100.00
2022-12-13T01:57:22.726Z,100.00
2022-12-13T01:59:53.202Z,100.00
2022-12-13T02:02:21.892Z,100.00
2022-12-13T02:04:56.769Z,100.00
2022-12-13T02:07:29.400Z,100.00
2022-12-13T02:10:00.906Z,100.00
2022-12-13T02:12:31.245Z,100.00
2022-12-13T02:15:01.218Z,100.00
2022-12-13T02:17:43.907Z,100.00
2022-12-13T02:20:44.510Z,100.00
2022-12-13T02:23:35.171Z,100.00
2022-12-13T02:26:28.563Z,100.00
2022-12-13T02:29:12.393Z,100.00
2022-12-13T02:32:09.116Z,100.00
2022-12-13T02:34:41.487Z,100.00
2022-12-13T02:37:19.350Z,100.00
2022-12-13T02:39:53.096Z,100.00
2022-12-13T02:42:26.747Z,100.00
2022-12-13T02:44:59.026Z,100.00
2022-12-13T02:47:30.645Z,100.00
2022-12-13T02:50:03.122Z,100.00
2022-12-13T02:52:33.570Z,100.00
2022-12-13T02:55:07.374Z,100.00
2022-12-13T02:57:37.364Z,100.00
2022-12-13T03:00:08.907Z,100.00
2022-12-13T03:02:46.777Z,100.00
2022-12-13T03:05:43.659Z,100.00
2022-12-13T03:08:22.989Z,100.00
2022-12-13T03:11:03.041Z,100.00
2022-12-13T03:13:38.192Z,100.00
2022-12-13T03:16:13.177Z,100.00
2022-12-13T03:18:43.392Z,100.00
2022-12-13T03:21:13.516Z,100.00
2022-12-13T03:23:42.040Z,100.00
2022-12-13T03:26:12.511Z,100.00
2022-12-13T03:28:41.252Z,100.00
2022-12-13T03:31:10.229Z,100.00
2022-12-13T03:33:38.933Z,100.00
2022-12-13T03:36:10.819Z,100.00
2022-12-13T03:38:40.170Z,100.00
2022-12-13T03:41:13.406Z,100.00
2022-12-13T03:43:42.092Z,100.00
2022-12-13T03:46:11.231Z,100.00
2022-12-13T03:48:39.626Z,96.65
2022-12-13T03:51:09.288Z,95.79
2022-12-13T03:53:37.636Z,97.20
2022-12-13T03:56:07.812Z,98.56
2022-12-13T03:58:38.218Z,100.00
2022-12-13T04:01:08.439Z,98.21
2022-12-13T04:03:37.707Z,95.02
2022-12-13T04:06:06.489Z,95.29
2022-12-13T04:08:36.594Z,93.07
2022-12-13T04:11:25.883Z,90.70
2022-12-13T04:13:53.590Z,90.17
2022-12-13T04:16:22.448Z,87.78
2022-12-13T04:18:50.943Z,87.15
2022-12-13T04:21:19.135Z,88.62
2022-12-13T04:23:48.852Z,90.15
2022-12-13T04:26:17.188Z,88.56
2022-12-13T04:28:50.847Z,88.50
2022-12-13T04:31:22.594Z,88.96
2022-12-13T04:33:50.858Z,86.35
2022-12-13T04:36:32.097Z,88.20
2022-12-13T04:39:03.161Z,88.13
2022-12-13T04:41:36.203Z,89.76
2022-12-13T04:44:05.459Z,91.39
2022-12-13T04:46:33.922Z,91.74
2022-12-13T04:49:05.492Z,93.83
2022-12-13T04:51:33.875Z,93.28
2022-12-13T04:54:23.341Z,92.34
2022-12-13T04:56:51.845Z,93.95
2022-12-13T04:59:20.196Z,95.72
2022-12-13T05:01:48.451Z,95.93
2022-12-13T05:04:16.736Z,96.81
2022-12-13T05:06:44.932Z,99.50
2022-12-13T05:09:14.562Z,100.00
2022-12-13T05:11:45.955Z,100.00
2022-12-13T05:14:14.509Z,99.81
2022-12-13T05:16:51.721Z,99.72
2022-12-13T05:19:20.026Z,97.97
2022-12-13T05:21:49.205Z,100.00
2022-12-13T05:24:19.182Z,100.00
2022-12-13T05:26:47.510Z,100.00
2022-12-13T05:29:15.762Z,100.00
2022-12-13T05:31:44.132Z,100.00
2022-12-13T05:34:12.387Z,100.00
2022-12-13T05:36:40.675Z,100.00
2022-12-13T05:39:28.362Z,100.00
2022-12-13T05:42:01.477Z,100.00
2022-12-13T05:44:31.797Z,100.00
2022-12-13T05:47:01.969Z,100.00
2022-12-13T05:49:31.372Z,100.00
2022-12-13T05:51:59.747Z,100.00
2022-12-13T05:54:28.086Z,100.00
2022-12-13T05:56:59.005Z,100.00
2022-12-13T05:59:27.259Z,100.00
2022-12-13T06:01:55.581Z,100.00
2022-12-13T06:04:23.860Z,100.00
2022-12-13T06:06:53.062Z,100.00
2022-12-13T06:09:24.712Z,100.00
2022-12-13T06:12:01.125Z,100.00
2022-12-13T06:14:31.176Z,100.00
2022-12-13T06:16:59.450Z,100.00
2022-12-13T06:19:28.094Z,100.00
2022-12-13T06:21:57.080Z,100.00
2022-12-13T06:24:25.390Z,100.00
2022-12-13T06:26:53.644Z,100.00
2022-12-13T06:29:25.545Z,100.00
2022-12-13T06:32:01.170Z,100.00
2022-12-13T06:34:33.090Z,100.00
2022-12-13T06:37:02.462Z,100.00
2022-12-13T06:39:32.475Z,100.00
2022-12-13T06:42:08.689Z,100.00
2022-12-13T06:44:37.208Z,100.00
2022-12-13T06:47:12.156Z,100.00
2022-12-13T06:49:44.131Z,100.00
2022-12-13T06:52:14.745Z,100.00
2022-12-13T06:54:43.592Z,100.00
2022-12-13T06:57:12.203Z,100.00
2022-12-13T06:59:41.355Z,98.30
2022-12-13T07:02:25.276Z,100.00
2022-12-13T07:04:55.909Z,100.00
2022-12-13T07:07:26.042Z,100.00
2022-12-13T07:09:54.913Z,100.00
2022-12-13T07:12:23.583Z,97.03
2022-12-13T07:14:51.881Z,93.81
2022-12-13T07:17:33.255Z,93.44
2022-12-13T07:20:03.755Z,94.72
2022-12-13T07:22:34.591Z,96.01
2022-12-13T07:25:06.090Z,98.81
2022-12-13T07:27:34.776Z,100.00
2022-12-13T07:30:03.710Z,99.16
2022-12-13T07:32:33.358Z,96.14
2022-12-13T07:35:01.576Z,92.48
2022-12-13T07:37:31.175Z,91.46
2022-12-13T07:40:04.415Z,88.85
2022-12-13T07:42:33.246Z,89.01
2022-12-13T07:45:01.585Z,87.09
2022-12-13T07:47:32.625Z,86.97
2022-12-13T07:50:01.422Z,86.62
2022-12-13T07:52:29.950Z,87.29
2022-12-13T07:54:58.243Z,85.58
2022-12-13T07:57:26.540Z,81.60
2022-12-13T07:59:54.823Z,81.28
2022-12-13T08:02:23.072Z,80.51
2022-12-13T08:04:54.992Z,81.83
2022-12-13T08:07:23.796Z,83.69
2022-12-13T08:09:53.291Z,83.64
2022-12-13T08:12:22.797Z,84.62
2022-12-13T08:14:53.093Z,83.99
2022-12-13T08:17:22.079Z,80.64
2022-12-13T08:19:50.539Z,81.21
2022-12-13T08:22:24.201Z,81.92
2022-12-13T08:24:52.830Z,82.39
2022-12-13T08:27:22.189Z,80.57
2022-12-13T08:29:50.395Z,80.90
2022-12-13T08:32:18.712Z,77.06
2022-12-13T08:34:47.083Z,75.86
2022-12-13T08:37:15.532Z,76.79
2022-12-13T08:39:45.924Z,75.77
2022-12-13T08:42:18.941Z,72.30
2022-12-13T08:44:50.219Z,68.13
2022-12-13T08:47:23.479Z,67.18
2022-12-13T08:50:02.196Z,66.86
2022-12-13T08:52:31.894Z,67.49
2022-12-13T08:55:01.717Z,67.84
2022-12-13T08:57:29.902Z,68.46
2022-12-13T08:59:58.232Z,69.20
2022-12-13T09:02:26.489Z,69.70
2022-12-13T09:04:54.757Z,68.21
2022-12-13T09:07:23.079Z,67.54
2022-12-13T09:09:55.131Z,67.10
2022-12-13T09:12:30.561Z,65.87
2022-12-13T09:15:01.667Z,67.69
2022-12-13T09:17:36.364Z,66.30
2022-12-13T09:20:10.150Z,66.97
2022-12-13T09:23:01.541Z,66.89
2022-12-13T09:25:37.246Z,62.40
2022-12-13T09:28:09.629Z,61.45
2022-12-13T09:30:40.534Z,58.77
2022-12-13T09:33:18.127Z,57.64
2022-12-13T09:35:57.048Z,57.72
2022-12-13T09:38:25.260Z,56.78
2022-12-13T09:40:58.501Z,57.10
2022-12-13T09:43:42.624Z,52.94
2022-12-13T09:46:34.255Z,50.99
2022-12-13T09:49:04.847Z,51.53
2022-12-13T09:51:47.303Z,50.28
2022-12-13T09:54:21.937Z,49.43
2022-12-13T09:56:51.805Z,45.46
2022-12-13T09:59:28.309Z,47.93
2022-12-13T10:01:56.943Z,48.06
2022-12-13T10:04:25.251Z,48.96
2022-12-13T10:06:55.231Z,49.59
2022-12-13T10:09:24.223Z,51.25
2022-12-13T10:11:54.911Z,52.39
2022-12-13T10:14:31.587Z,50.82
2022-12-13T10:17:04.927Z,50.60
2022-12-13T10:19:36.811Z,50.13
2022-12-13T10:22:07.566Z,48.82
2022-12-13T10:24:51.100Z,48.32
2022-12-13T10:27:21.610Z,49.26
2022-12-13T10:30:03.934Z,48.03
2022-12-13T10:32:37.642Z,48.23
2022-12-13T10:35:21.835Z,49.22
2022-12-13T10:37:50.277Z,47.78
2022-12-13T10:40:33.391Z,47.44
2022-12-13T10:43:14.695Z,45.08
2022-12-13T10:45:45.621Z,45.09
2022-12-13T10:48:22.390Z,46.40
2022-12-13T10:51:02.784Z,47.88
2022-12-13T10:53:34.318Z,48.08
2022-12-13T10:56:03.956Z,48.80
2022-12-13T10:58:40.604Z,49.52
2022-12-13T11:01:24.068Z,49.65
2022-12-13T11:04:02.526Z,49.39
2022-12-13T11:06:43.483Z,46.98
2022-12-13T11:09:23.448Z,47.29
2022-12-13T11:11:58.276Z,44.50
2022-12-13T11:14:31.633Z,43.58
2022-12-13T11:17:08.783Z,42.31
2022-12-13T11:19:41.335Z,41.13
2022-12-13T11:22:11.971Z,41.10
2022-12-13T11:24:43.588Z,39.81
2022-12-13T11:27:38.479Z,36.29
2022-12-13T11:30:16.546Z,35.35
2022-12-13T11:33:04.447Z,35.51
2022-12-13T11:35:44.302Z,34.95
2022-12-13T11:38:27.861Z,34.73
2022-12-13T11:41:00.462Z,32.37
2022-12-13T11:43:35.415Z,35.31
2022-12-13T11:46:14.704Z,35.89
2022-12-13T11:48:48.500Z,36.50
2022-12-13T11:51:24.097Z,35.46
2022-12-13T11:53:59.271Z,33.27
2022-12-13T11:56:29.920Z,33.31
2022-12-13T11:59:16.199Z,33.30
2022-12-13T12:02:04.885Z,34.02
2022-12-13T12:04:41.135Z,32.35
2022-12-13T12:07:31.881Z,30.36
2022-12-13T12:10:12.249Z,33.55
2022-12-13T12:12:45.374Z,33.58
2022-12-13T12:15:16.991Z,33.14
2022-12-13T12:17:45.345Z,32.80
2022-12-13T12:20:23.285Z,33.18
2022-12-13T12:23:08.200Z,33.76
2022-12-13T12:25:46.801Z,32.82
2022-12-13T12:28:29.500Z,32.67
2022-12-13T12:31:10.725Z,33.20
2022-12-13T12:33:53.293Z,33.23
2022-12-13T12:36:39.983Z,32.37
2022-12-13T12:39:28.413Z,32.31
2022-12-13T12:42:12.712Z,31.95
2022-12-13T12:44:56.007Z,31.19
2022-12-13T12:48:42.660Z,32.31
2022-12-13T12:50:43.023Z,33.78
2022-12-13T12:53:30.466Z,34.51
2022-12-13T12:56:10.405Z,34.50
2022-12-13T12:58:45.198Z,33.98
2022-12-13T13:01:33.445Z,32.58
2022-12-13T13:04:09.128Z,32.15
2022-12-13T13:06:40.467Z,34.96
2022-12-13T13:09:13.048Z,35.14
2022-12-13T13:11:44.009Z,36.23
2022-12-13T13:14:33.580Z,36.18
2022-12-13T13:17:22.736Z,35.60
2022-12-13T13:20:01.591Z,35.91
2022-12-13T13:22:43.409Z,36.26
2022-12-13T13:25:31.327Z,37.90
2022-12-13T13:28:14.950Z,36.23
2022-12-13T13:31:03.419Z,35.96
2022-12-13T13:33:46.671Z,38.35
2022-12-13T13:36:47.879Z,40.56
2022-12-13T13:39:20.568Z,40.46
2022-12-13T13:42:09.084Z,40.57
2022-12-13T13:45:06.830Z,39.71
2022-12-13T13:47:43.232Z,40.18
2022-12-13T13:50:47.030Z,41.55
2022-12-13T13:53:45.258Z,41.68
2022-12-13T13:56:38.225Z,40.47
2022-12-13T13:59:45.094Z,40.98
2022-12-13T14:02:42.517Z,44.06
2022-12-13T14:05:49.096Z,43.97
2022-12-13T14:08:30.144Z,44.07
2022-12-13T14:11:27.991Z,44.32
2022-12-13T14:14:38.665Z,44.11
2022-12-13T14:17:48.841Z,47.97
2022-12-13T14:20:52.882Z,49.98
2022-12-13T14:23:38.401Z,51.69
2022-12-13T14:26:37.182Z,50.43
2022-12-13T14:29:13.170Z,52.17
2022-12-13T14:31:44.291Z,51.30
2022-12-13T14:34:22.378Z,50.63
2022-12-13T14:36:57.382Z,51.54
2022-12-13T14:39:29.646Z,53.17
2022-12-13T14:42:01.020Z,53.56
2022-12-13T14:44:31.460Z,52.97
2022-12-13T14:47:02.365Z,54.92
2022-12-13T14:49:33.984Z,56.00
2022-12-13T14:52:07.041Z,54.61
2022-12-13T14:54:46.272Z,56.13
2022-12-13T14:57:20.606Z,56.35
2022-12-13T14:59:52.728Z,58.97
2022-12-13T15:02:31.114Z,56.78
2022-12-13T15:05:09.068Z,57.55
2022-12-13T15:07:39.769Z,58.74
2022-12-13T15:10:22.388Z,56.31
2022-12-13T15:12:52.275Z,61.79
2022-12-13T15:15:26.933Z,60.32
2022-12-13T15:18:18.414Z,57.63
2022-12-13T15:20:50.062Z,58.21
2022-12-13T15:23:30.984Z,58.55
2022-12-13T15:26:03.564Z,60.05
2022-12-13T15:28:35.584Z,60.86
2022-12-13T15:31:06.261Z,58.76
2022-12-13T15:33:39.477Z,57.24
2022-12-13T15:36:16.980Z,57.91
2022-12-13T15:38:51.817Z,57.98
2022-12-13T15:41:24.059Z,56.82
2022-12-13T15:43:55.201Z,55.51
2022-12-13T15:46:28.269Z,55.11
2022-12-13T15:48:58.679Z,53.40
2022-12-13T15:51:28.886Z,55.62
2022-12-13T15:54:05.006Z,57.82
2022-12-13T15:56:38.088Z,56.58
2022-12-13T15:59:08.067Z,57.10
2022-12-13T16:01:38.057Z,57.61
2022-12-13T16:04:07.447Z,57.56
2022-12-13T16:06:36.599Z,58.59
2022-12-13T16:09:08.022Z,58.06
2022-12-13T16:11:50.360Z,58.87
2022-12-13T16:14:49.394Z,58.69
2022-12-13T16:17:24.723Z,58.60
2022-12-13T16:19:53.843Z,58.08
2022-12-13T16:22:24.219Z,57.78
2022-12-13T16:24:53.555Z,57.96
2022-12-13T16:27:23.589Z,56.65
2022-12-13T16:29:51.794Z,56.24
2022-12-13T16:32:20.246Z,58.35
2022-12-13T16:34:53.719Z,58.50
2022-12-13T16:37:28.473Z,58.12
2022-12-13T16:39:56.986Z,58.57
2022-12-13T16:42:27.526Z,57.55
2022-12-13T16:45:18.138Z,57.93
2022-12-13T16:47:49.744Z,57.85
2022-12-13T16:50:21.511Z,56.82
2022-12-13T16:52:49.959Z,57.59
2022-12-13T16:55:18.561Z,57.93
2022-12-13T16:57:58.209Z,57.74
2022-12-13T17:00:27.939Z,59.59
2022-12-13T17:02:58.058Z,58.45
2022-12-13T17:05:27.992Z,59.60
2022-12-13T17:07:57.752Z,59.52
2022-12-13T17:10:26.236Z,59.52
2022-12-13T17:12:55.165Z,60.39
2022-12-13T17:15:28.031Z,59.92
2022-12-13T17:17:56.498Z,59.33
2022-12-13T17:20:25.862Z,59.57
2022-12-13T17:22:57.773Z,60.80
2022-12-13T17:25:26.607Z,60.74
2022-12-13T17:27:55.008Z,61.69
2022-12-13T17:30:25.217Z,61.40
2022-12-13T17:32:53.485Z,62.48
2022-12-13T17:35:21.827Z,63.06
2022-12-13T17:37:51.212Z,64.68
2022-12-13T17:40:19.714Z,64.04
2022-12-13T17:42:50.991Z,64.82
2022-12-13T17:45:20.873Z,65.87
2022-12-13T17:47:50.979Z,65.51
2022-12-13T17:50:23.159Z,63.44
2022-12-13T17:52:51.344Z,62.49
2022-12-13T17:55:19.637Z,63.40
2022-12-13T17:57:48.164Z,63.66
2022-12-13T18:00:21.349Z,63.66
2022-12-13T18:02:55.830Z,63.95
2022-12-13T18:05:26.551Z,66.10
2022-12-13T18:07:54.953Z,62.60
2022-12-13T18:10:27.925Z,71.28
2022-12-13T18:12:58.959Z,64.57
2022-12-13T18:15:27.337Z,64.39
2022-12-13T18:18:11.098Z,64.82
2022-12-13T18:20:40.188Z,64.70
2022-12-13T18:23:08.917Z,64.68
2022-12-13T18:25:37.796Z,64.10
2022-12-13T18:28:06.995Z,64.51
2022-12-13T18:30:35.386Z,64.90
2022-12-13T18:33:05.502Z,65.31
2022-12-13T18:35:34.498Z,65.83
2022-12-13T18:38:02.840Z,66.02
2022-12-13T18:40:32.572Z,65.35
2022-12-13T18:43:00.903Z,66.80
2022-12-13T18:45:29.225Z,64.83
2022-12-13T18:47:58.583Z,65.23
2022-12-13T18:50:28.233Z,65.16
2022-12-13T18:52:56.511Z,65.57
2022-12-13T18:55:24.828Z,61.71
2022-12-13T18:57:53.264Z,63.01
2022-12-13T19:00:22.465Z,63.76
2022-12-13T19:02:50.807Z,62.00
2022-12-13T19:05:19.252Z,62.43
2022-12-13T19:07:48.910Z,62.31
2022-12-13T19:10:17.293Z,63.03
2022-12-13T19:12:45.775Z,63.03
2022-12-13T19:15:15.307Z,62.75
2022-12-13T19:17:43.647Z,64.19
2022-12-13T19:20:13.035Z,63.92
2022-12-13T19:22:41.397Z,63.19
2022-12-13T19:25:11.798Z,64.49
2022-12-13T19:27:40.235Z,66.26
2022-12-13T19:30:09.663Z,66.41
2022-12-13T19:32:42.607Z,67.04
2022-12-13T19:35:16.836Z,66.12
2022-12-13T19:37:48.395Z,67.04
2022-12-13T19:40:18.743Z,67.80
2022-12-13T19:42:47.450Z,66.62
2022-12-13T19:45:15.998Z,66.38
2022-12-13T19:47:44.885Z,66.06
2022-12-13T19:50:17.847Z,66.56
2022-12-13T19:52:47.071Z,65.36
2022-12-13T19:55:15.556Z,66.84
2022-12-13T19:57:45.483Z,66.59
2022-12-13T20:00:15.316Z,67.44
2022-12-13T20:02:43.925Z,67.69
2022-12-13T20:05:12.204Z,70.38
2022-12-13T20:07:40.932Z,69.97
2022-12-13T20:10:10.428Z,69.35
2022-12-13T20:12:41.092Z,68.95
2022-12-13T20:15:11.881Z,69.32
2022-12-13T20:17:41.511Z,68.62
2022-12-13T20:20:10.984Z,68.45
2022-12-13T20:22:39.559Z,68.86
2022-12-13T20:25:09.534Z,68.53
2022-12-13T20:27:38.053Z,68.44
2022-12-13T20:30:11.164Z,68.30
2022-12-13T20:32:39.687Z,67.94
2022-12-13T20:35:08.828Z,67.38
2022-12-13T20:37:40.328Z,67.31
2022-12-13T20:40:09.678Z,67.36
2022-12-13T20:42:39.033Z,67.52
2022-12-13T20:45:08.543Z,67.74
2022-12-13T20:47:38.718Z,68.43
2022-12-13T20:50:08.055Z,69.51
2022-12-13T20:52:36.667Z,69.17
2022-12-13T20:55:06.082Z,68.64
2022-12-13T20:57:34.411Z,69.20
2022-12-13T21:00:02.760Z,69.38
2022-12-13T21:02:31.154Z,70.99
2022-12-13T21:05:00.763Z,71.03
2022-12-13T21:07:42.881Z,70.19
2022-12-13T21:10:16.841Z,70.30
2022-12-13T21:12:45.347Z,70.25
2022-12-13T21:15:13.669Z,70.91
2022-12-13T21:17:42.671Z,71.44
2022-12-13T21:20:12.792Z,71.38
2022-12-13T21:22:41.175Z,71.58
2022-12-13T21:25:10.348Z,72.70
2022-12-13T21:27:38.632Z,72.89
2022-12-13T21:30:08.287Z,72.75
2022-12-13T21:32:37.863Z,73.08
2022-12-13T21:35:08.768Z,72.53
2022-12-13T21:37:38.427Z,74.73
2022-12-13T21:40:08.754Z,75.52
2022-12-13T21:42:37.030Z,74.18
2022-12-13T21:45:05.798Z,73.97
2022-12-13T21:47:34.155Z,74.21
2022-12-13T21:50:02.490Z,75.13
2022-12-13T21:52:30.685Z,75.20
2022-12-13T21:55:30.033Z,76.33
2022-12-13T21:58:07.918Z,79.48
2022-12-13T22:00:37.197Z,78.94
2022-12-13T22:03:05.823Z,80.18
2022-12-13T22:05:34.490Z,81.31
2022-12-13T22:08:02.792Z,80.20
2022-12-13T22:10:32.563Z,77.90
2022-12-13T22:13:00.824Z,79.82
2022-12-13T22:15:29.079Z,79.54
2022-12-13T22:17:58.095Z,79.96
2022-12-13T22:20:26.564Z,78.00
2022-12-13T22:22:54.881Z,77.86
2022-12-13T22:25:23.184Z,78.18
2022-12-13T22:27:53.657Z,78.33
2022-12-13T22:30:21.920Z,76.64
2022-12-13T22:32:50.164Z,74.85
2022-12-13T22:35:18.658Z,74.39
2022-12-13T22:37:50.095Z,74.32
2022-12-13T22:40:18.541Z,74.72
2022-12-13T22:42:48.296Z,74.65
2022-12-13T22:45:18.375Z,75.19
2022-12-13T22:47:46.704Z,75.27
2022-12-13T22:50:15.444Z,75.46
2022-12-13T22:52:43.652Z,76.32
2022-12-13T22:55:12.085Z,80.34
2022-12-13T22:57:40.432Z,80.33
2022-12-13T23:00:10.468Z,80.77
2022-12-13T23:02:40.343Z,78.73
2022-12-13T23:05:09.174Z,78.54
2022-12-13T23:07:37.455Z,78.39
2022-12-13T23:10:27.432Z,77.27
2022-12-13T23:13:03.693Z,75.71
2022-12-13T23:15:32.485Z,76.26
2022-12-13T23:18:02.208Z,75.47
2022-12-13T23:20:30.495Z,75.23
2022-12-13T23:22:59.613Z,76.96
2022-12-13T23:25:27.844Z,78.91
2022-12-13T23:27:56.170Z,78.48
2022-12-13T23:30:24.471Z,79.76
2022-12-13T23:32:52.714Z,79.88
2022-12-13T23:35:22.399Z,79.37
2022-12-13T23:37:50.760Z,78.22
2022-12-13T23:40:19.144Z,77.21
2022-12-13T23:42:48.085Z,76.16
2022-12-13T23:45:18.651Z,75.40
2022-12-13T23:47:46.840Z,76.03
2022-12-13T23:50:17.693Z,76.59
2022-12-13T23:52:47.354Z,77.35
2022-12-13T23:55:15.767Z,77.24
2022-12-13T23:57:44.093Z,76.44
